Time;durP1;ratioP1;P1;durP2;ratioP2;P2;SDS_P1;SDS_P2;PMS_P1;PMS_P2;Temp;Humidity;BMP_temperature;BMP_pressure;BME280_temperature;BME280_humidity;BME280_pressure;Samples;Min_cycle;Max_cycle;Signal;HPM_P1;HPM_P2
2022/10/06 00:05:08;;;;;;;2.97;1.20;;;;;;;14.84;100.00;98817.44;15275098;19;20021;-58
2022/10/06 00:10:32;;;;;;;3.38;0.98;;;;;;;14.75;100.00;98823.94;15268014;19;20018;-57
2022/10/06 00:16:00;;;;;;;3.13;0.90;;;;;;;14.71;100.00;98814.47;15271799;19;20021;-60
2022/10/06 00:21:25;;;;;;;2.22;1.10;;;;;;;14.67;100.00;98822.13;15270197;19;20450;-57
2022/10/06 00:26:50;;;;;;;2.05;1.10;;;;;;;14.64;100.00;98822.47;15268325;19;20015;-58
2022/10/06 00:32:18;;;;;;;2.80;1.15;;;;;;;14.61;100.00;98845.34;15270782;19;20054;-56
2022/10/06 00:37:43;;;;;;;2.05;0.93;;;;;;;14.71;100.00;98847.88;15262714;19;20019;-57
2022/10/06 00:43:10;;;;;;;1.40;1.00;;;;;;;14.73;100.00;98859.41;15265345;19;20015;-56
2022/10/06 00:48:37;;;;;;;1.55;0.98;;;;;;;14.74;100.00;98855.66;15270297;19;20026;-58
2022/10/06 00:54:03;;;;;;;2.30;0.73;;;;;;;14.73;100.00;98853.97;15262708;19;20160;-58
2022/10/06 00:59:28;;;;;;;2.10;0.82;;;;;;;14.69;100.00;98847.19;15267652;19;20369;-59
2022/10/06 01:05:02;;;;;;;1.85;0.90;;;;;;;14.59;100.00;98849.25;15268070;19;20042;-56
2022/10/06 01:10:27;;;;;;;2.00;0.95;;;;;;;14.53;100.00;98853.53;15264011;19;20079;-57
2022/10/06 01:16:04;;;;;;;1.70;0.90;;;;;;;14.47;100.00;98857.78;15268395;19;20007;-55
2022/10/06 01:21:37;;;;;;;3.20;1.00;;;;;;;14.44;100.00;98852.69;15264679;19;20026;-58
2022/10/06 01:27:06;;;;;;;;;;;;;;;14.47;100.00;98855.06;15271877;19;20019;-56
2022/10/06 01:32:36;;;;;;;3.85;1.10;;;;;;;14.47;100.00;98854.22;15260930;19;19946;-58
2022/10/06 01:38:00;;;;;;;2.10;1.00;;;;;;;14.50;100.00;98862.00;15260055;19;20027;-56
2022/10/06 01:43:27;;;;;;;1.90;0.90;;;;;;;14.45;100.00;98851.69;15264500;19;20109;-59
2022/10/06 01:48:52;;;;;;;3.20;0.90;;;;;;;14.56;100.00;98846.88;15258174;19;20015;-59
2022/10/06 01:54:18;;;;;;;1.63;0.95;;;;;;;14.60;100.00;98849.06;15260192;19;20022;-56
2022/10/06 01:59:46;;;;;;;1.77;0.82;;;;;;;14.67;100.00;98865.50;15278599;19;20042;-57
2022/10/06 02:05:13;;;;;;;1.90;1.00;;;;;;;14.68;100.00;98877.22;15276811;19;20011;-55
2022/10/06 02:10:39;;;;;;;2.60;1.10;;;;;;;14.69;100.00;98887.06;15275258;19;20089;-57
2022/10/06 02:16:12;;;;;;;2.78;1.00;;;;;;;14.66;100.00;98881.94;15278462;19;20034;-58
2022/10/06 02:21:39;;;;;;;1.83;0.93;;;;;;;14.55;100.00;98877.72;15275977;19;20746;-57
2022/10/06 02:27:05;;;;;;;1.38;0.82;;;;;;;14.46;100.00;98885.91;15279676;19;20748;-58
2022/10/06 02:32:41;;;;;;;3.15;1.02;;;;;;;14.41;100.00;98901.84;15274896;19;20018;-57
2022/10/06 02:38:06;;;;;;;1.88;1.00;;;;;;;14.35;100.00;98918.81;15278398;19;20372;-58
2022/10/06 02:43:32;;;;;;;2.25;1.00;;;;;;;14.31;100.00;98921.03;15274049;19;20038;-57
2022/10/06 02:49:00;;;;;;;2.30;1.00;;;;;;;14.26;100.00;98936.13;15268032;19;20019;-58
2022/10/06 02:54:25;;;;;;;1.90;1.10;;;;;;;14.17;100.00;98943.41;15269957;19;20038;-58
2022/10/06 02:59:49;;;;;;;3.72;1.13;;;;;;;14.09;100.00;98954.28;15271161;19;20042;-58
2022/10/06 03:05:26;;;;;;;1.25;0.90;;;;;;;14.09;100.00;98965.09;15269025;19;20015;-57
2022/10/06 03:10:50;;;;;;;1.85;0.90;;;;;;;14.09;100.00;98965.94;15272816;19;20014;-57
2022/10/06 03:16:23;;;;;;;2.17;1.00;;;;;;;14.11;100.00;98972.03;15272309;19;20014;-56
2022/10/06 03:21:50;;;;;;;2.53;1.02;;;;;;;14.10;100.00;98980.34;15273986;19;20023;-59
2022/10/06 03:27:25;;;;;;;3.20;1.35;;;;;;;14.07;100.00;98991.53;15268872;19;20086;-57
2022/10/06 03:32:49;;;;;;;2.67;1.13;;;;;;;14.07;100.00;99000.47;15272427;19;20025;-56
2022/10/06 03:38:17;;;;;;;1.67;1.10;;;;;;;14.09;100.00;99003.88;15265603;19;20484;-56
2022/10/06 03:43:44;;;;;;;2.03;1.10;;;;;;;14.10;100.00;99013.69;15268724;19;20409;-57
2022/10/06 03:49:09;;;;;;;2.67;1.02;;;;;;;14.10;100.00;99021.81;15264592;19;20035;-56
2022/10/06 03:54:36;;;;;;;1.63;0.90;;;;;;;14.12;100.00;99014.38;15267837;19;20014;-57
2022/10/06 04:00:02;;;;;;;2.40;1.00;;;;;;;14.12;100.00;99021.66;15268552;19;20362;-54
2022/10/06 04:05:27;;;;;;;2.50;0.98;;;;;;;14.20;100.00;99031.63;15271054;19;20034;-57
2022/10/06 04:10:55;;;;;;;3.13;1.00;;;;;;;14.30;100.00;99032.31;15264558;19;20018;-57
2022/10/06 04:16:22;;;;;;;4.40;0.80;;;;;;;14.51;100.00;99053.47;15272685;19;20607;-58
2022/10/06 04:21:49;;;;;;;1.63;0.90;;;;;;;14.59;100.00;99058.06;15268718;19;20029;-56
2022/10/06 04:27:29;;;;;;;2.65;1.02;;;;;;;14.67;100.00;99065.34;15271011;19;20073;-59
2022/10/06 04:32:57;;;;;;;3.90;0.88;;;;;;;14.73;100.00;99081.78;15263796;19;20628;-57
2022/10/06 04:38:21;;;;;;;1.77;0.80;;;;;;;14.77;100.00;99093.97;15263825;19;20093;-59
2022/10/06 04:43:53;;;;;;;2.65;1.00;;;;;;;14.90;100.00;99117.00;15261603;19;20354;-56
2022/10/06 04:49:18;;;;;;;3.10;1.08;;;;;;;14.63;100.00;99173.31;15263230;19;20078;-57
2022/10/06 04:54:42;;;;;;;2.88;1.10;;;;;;;14.24;100.00;99198.31;15266280;19;20017;-58
2022/10/06 05:00:25;;;;;;;1.38;0.60;;;;;;;13.86;100.00;99261.88;15264858;19;20019;-53
2022/10/06 05:05:50;;;;;;;1.17;0.47;;;;;;;13.56;100.00;99274.91;15265728;19;20504;-57
2022/10/06 05:11:14;;;;;;;0.63;0.32;;;;;;;13.24;100.00;99303.41;15265439;19;20022;-59
2022/10/06 05:16:46;;;;;;;0.75;0.40;;;;;;;12.98;100.00;99307.94;15261785;19;20023;-58
2022/10/06 05:22:11;;;;;;;0.88;0.30;;;;;;;12.69;100.00;99326.06;15265194;19;20095;-55
2022/10/06 05:27:36;;;;;;;2.47;0.38;;;;;;;12.47;100.00;99335.44;15266392;19;20484;-57
2022/10/06 05:33:04;;;;;;;1.42;0.30;;;;;;;12.31;100.00;99342.34;15276728;19;20410;-56
2022/10/06 05:38:22;;;;;;;0.88;0.30;;;;;;;12.20;100.00;99342.53;15274782;19;20019;-55
2022/10/06 05:43:48;;;;;;;1.85;0.30;;;;;;;12.11;100.00;99348.84;15275885;19;20028;-58
2022/10/06 05:49:16;;;;;;;0.90;0.30;;;;;;;12.01;100.00;99340.75;15275667;19;20031;-59
2022/10/06 05:54:45;;;;;;;3.08;0.45;;;;;;;11.91;100.00;99346.19;15277473;19;20018;-57
2022/10/06 06:00:11;;;;;;;2.78;0.50;;;;;;;11.82;100.00;99361.41;15276391;19;20101;-56
2022/10/06 06:05:38;;;;;;;3.92;0.50;;;;;;;11.72;100.00;99347.09;15279127;19;20413;-55
2022/10/06 06:11:12;;;;;;;0.73;0.40;;;;;;;11.66;100.00;99344.97;15274833;19;20102;-51
2022/10/06 06:16:38;;;;;;;5.65;0.70;;;;;;;11.66;100.00;99356.63;15279759;19;20443;-51
2022/10/06 06:22:06;;;;;;;0.77;0.30;;;;;;;11.61;100.00;99375.09;15275076;19;20014;-57
2022/10/06 06:27:32;;;;;;;3.72;0.77;;;;;;;11.64;100.00;99382.91;15280947;19;20014;-53
2022/10/06 06:32:59;;;;;;;2.33;0.50;;;;;;;11.65;100.00;99400.81;15277710;19;20014;-56
2022/10/06 06:38:26;;;;;;;2.45;0.50;;;;;;;11.69;100.00;99413.03;15271798;19;20024;-54
2022/10/06 06:43:52;;;;;;;2.08;0.50;;;;;;;11.74;100.00;99417.13;15273295;19;20015;-54
2022/10/06 06:49:22;;;;;;;1.85;0.47;;;;;;;11.84;100.00;99417.97;15270167;19;20025;-57
2022/10/06 06:54:48;;;;;;;3.08;0.60;;;;;;;11.88;100.00;99431.03;15272303;19;20026;-55
2022/10/06 07:00:15;;;;;;;2.53;0.50;;;;;;;11.92;100.00;99453.22;15273737;19;20021;-54
2022/10/06 07:05:40;;;;;;;2.22;0.50;;;;;;;12.02;100.00;99454.06;15273433;19;20030;-57
2022/10/06 07:11:16;;;;;;;2.15;0.50;;;;;;;12.02;100.00;99470.28;15270704;19;20082;-57
2022/10/06 07:28:05;;;;;;;1.92;0.60;;;;;;;11.96;100.00;99514.03;15267579;19;20018;-55
2022/10/06 07:33:31;;;;;;;3.00;0.60;;;;;;;11.85;100.00;99519.56;15274073;19;20029;-60
2022/10/06 07:38:56;;;;;;;1.33;0.50;;;;;;;11.96;100.00;99530.22;15268204;19;20030;-55
2022/10/06 07:44:24;;;;;;;2.92;0.80;;;;;;;12.14;100.00;99524.97;15267741;19;20031;-55
2022/10/06 07:49:50;;;;;;;5.25;1.30;;;;;;;12.38;100.00;99544.44;15268315;19;20085;-53
2022/10/06 07:55:16;;;;;;;2.80;0.95;;;;;;;12.59;100.00;99536.13;15266629;19;20010;-52
2022/10/06 08:00:56;;;;;;;2.20;0.70;;;;;;;12.74;100.00;99550.88;15269578;19;20035;-53
2022/10/06 08:06:22;;;;;;;2.65;0.82;;;;;;;12.90;100.00;99558.38;15273475;19;20026;-56
2022/10/06 08:11:47;;;;;;;4.82;1.10;;;;;;;13.03;100.00;99565.28;15269832;19;20042;-56
2022/10/06 08:17:15;;;;;;;4.20;1.10;;;;;;;13.11;100.00;99573.53;15273875;19;20053;-59
2022/10/06 08:22:40;;;;;;;3.83;1.30;;;;;;;13.22;100.00;99586.00;15273854;19;20018;-59
2022/10/06 08:28:04;;;;;;;4.18;1.02;;;;;;;13.27;100.00;99586.41;15269427;19;20030;-56
2022/10/06 08:33:37;;;;;;;4.68;1.02;;;;;;;13.45;100.00;99594.63;15271189;19;20017;-58
2022/10/06 08:39:01;;;;;;;4.28;0.93;;;;;;;13.43;100.00;99591.19;15263434;19;20021;-55
2022/10/06 08:44:36;;;;;;;4.00;1.15;;;;;;;13.52;100.00;99593.00;15265152;19;20042;-57
2022/10/06 08:50:08;;;;;;;14.05;1.95;;;;;;;13.60;100.00;99589.53;14756365;19;10000698;-61
2022/10/06 08:55:42;;;;;;;5.03;1.17;;;;;;;13.76;100.00;99578.03;15266623;19;20017;-59
2022/10/06 09:01:17;;;;;;;3.20;1.10;;;;;;;13.76;100.00;99555.50;15262785;19;20021;-56
2022/10/06 09:07:02;;;;;;;8.23;1.55;;;;;;;13.87;100.00;99575.09;15280002;19;20021;-57
2022/10/06 09:12:34;;;;;;;4.47;1.13;;;;;;;13.91;100.00;99591.03;15280848;19;20014;-54
2022/10/06 09:18:04;;;;;;;6.05;1.30;;;;;;;13.95;100.00;99604.13;15281081;19;20041;-53
2022/10/06 09:23:49;;;;;;;6.73;1.50;;;;;;;14.02;100.00;99609.78;15281955;19;20013;-54
2022/10/06 09:29:13;;;;;;;4.38;1.30;;;;;;;14.09;100.00;99621.69;15285192;19;20634;-59
2022/10/06 09:34:44;;;;;;;3.92;1.20;;;;;;;14.18;100.00;99626.19;15274411;19;20018;-56
2022/10/06 09:40:35;;;;;;;6.10;1.40;;;;;;;14.32;100.00;99622.09;15279725;19;20094;-57
2022/10/06 09:46:19;;;;;;;;;;;;;;;14.32;100.00;99626.66;15284223;19;20345;-56
2022/10/06 09:51:44;;;;;;;3.13;1.10;;;;;;;14.42;100.00;99630.13;15280005;19;19919;-54
2022/10/06 09:57:17;;;;;;;4.75;1.30;;;;;;;14.46;100.00;99641.53;15283968;19;20077;-58
2022/10/06 10:02:44;;;;;;;3.35;1.08;;;;;;;14.50;100.00;99648.31;15281643;19;20017;-54
2022/10/06 10:08:22;;;;;;;3.63;1.10;;;;;;;14.66;100.00;99649.47;15280676;19;20006;-56
2022/10/06 10:13:52;;;;;;;2.58;0.80;;;;;;;14.83;100.00;99645.06;15282907;19;20025;-85
2022/10/06 10:19:31;;;;;;;3.22;0.82;;;;;;;14.93;100.00;99662.06;15306872;19;20015;-86
2022/10/06 10:25:08;;;;;;;3.47;1.10;;;;;;;14.93;100.00;99652.06;15297721;19;20058;-85
2022/10/06 10:30:46;;;;;;;3.78;0.90;;;;;;;15.03;100.00;99648.41;15295964;19;20026;-79
2022/10/06 10:36:13;;;;;;;3.42;0.90;;;;;;;15.12;100.00;99654.72;15282266;19;20010;-79
2022/10/06 10:41:46;;;;;;;3.95;1.15;;;;;;;15.07;100.00;99656.06;15290299;19;20018;-81
2022/10/06 10:47:24;;;;;;;4.75;1.17;;;;;;;15.22;100.00;99656.31;15292358;19;20014;-79
2022/10/06 10:52:53;;;;;;;2.97;0.90;;;;;;;15.27;100.00;99663.16;15291680;19;20010;-80
2022/10/06 10:58:27;;;;;;;4.68;1.05;;;;;;;15.30;100.00;99662.78;15290107;19;20019;-79
2022/10/06 11:03:59;;;;;;;3.85;1.00;;;;;;;15.32;100.00;99669.78;15281590;19;20018;-81
2022/10/06 11:09:27;;;;;;;5.15;1.25;;;;;;;15.41;100.00;99676.09;15288640;19;20006;-82
2022/10/06 11:14:58;;;;;;;3.95;0.90;;;;;;;15.41;100.00;99665.22;15281715;19;20023;-82
2022/10/06 11:20:48;;;;;;;2.90;0.98;;;;;;;15.37;100.00;99670.13;15273730;19;20024;-82
2022/10/06 11:26:26;;;;;;;2.25;0.85;;;;;;;15.45;100.00;99668.50;15279260;19;20493;-80
2022/10/06 11:32:01;;;;;;;4.07;1.20;;;;;;;15.51;100.00;99681.41;15279800;19;20021;-81
2022/10/06 11:37:38;;;;;;;4.50;1.10;;;;;;;15.54;100.00;99672.94;15285750;19;20034;-80
2022/10/06 11:43:10;;;;;;;4.40;0.90;;;;;;;15.68;100.00;99666.03;15277651;19;20378;-81
2022/10/06 11:48:35;;;;;;;2.38;0.90;;;;;;;15.49;100.00;99661.72;15277571;19;20082;-80
2022/10/06 11:54:02;;;;;;;2.90;0.98;;;;;;;15.61;100.00;99665.00;15274690;19;20014;-79
2022/10/06 11:59:30;;;;;;;3.72;1.00;;;;;;;15.72;100.00;99662.00;15278051;19;20096;-80
2022/10/06 12:05:39;;;;;;;2.72;0.90;;;;;;;15.96;100.00;99655.81;15280108;19;20018;-81
2022/10/06 12:11:44;;;;;;;1.60;0.70;;;;;;;16.01;100.00;99660.72;15279164;19;20450;-81
2022/10/06 12:17:14;;;;;;;2.25;0.82;;;;;;;16.10;100.00;99665.19;15281880;19;20014;-79
2022/10/06 12:22:46;;;;;;;3.95;0.70;;;;;;;16.03;100.00;99661.41;15280380;19;20503;-80
2022/10/06 12:28:25;;;;;;;2.22;0.70;;;;;;;16.16;100.00;99650.09;15286750;19;20015;-79
2022/10/06 12:33:57;;;;;;;2.38;0.80;;;;;;;16.25;100.00;99649.06;15283224;19;20018;-80
2022/10/06 12:39:24;;;;;;;3.05;0.70;;;;;;;16.42;100.00;99663.53;15278595;19;20015;-82
2022/10/06 12:44:54;;;;;;;3.72;0.80;;;;;;;16.51;100.00;99656.25;15299005;19;20018;-80
2022/10/06 12:50:25;;;;;;;2.03;0.88;;;;;;;16.60;100.00;99655.22;15341577;19;20441;-82
2022/10/06 12:55:55;;;;;;;2.35;0.80;;;;;;;16.70;100.00;99654.19;15282628;19;20066;-79
2022/10/06 13:01:24;;;;;;;5.57;0.93;;;;;;;16.82;100.00;99652.81;15293964;19;20011;-78
2022/10/06 13:06:56;;;;;;;1.52;0.70;;;;;;;16.99;100.00;99648.22;15290859;19;20164;-79
2022/10/06 13:12:32;;;;;;;2.95;1.00;;;;;;;17.14;100.00;99644.81;15293126;19;20014;-81
2022/10/06 13:18:20;;;;;;;1.73;0.70;;;;;;;17.19;100.00;99642.38;15337708;19;20018;-78
2022/10/06 13:23:47;;;;;;;2.35;1.05;;;;;;;17.08;100.00;99640.91;15288298;19;20081;-79
2022/10/06 13:29:12;;;;;;;3.80;0.80;;;;;;;17.12;100.00;99638.69;15267129;19;20022;-79
2022/10/06 13:34:47;;;;;;;2.40;0.80;;;;;;;17.13;100.00;99635.75;15265040;19;20022;-80
2022/10/06 13:40:30;;;;;;;1.92;0.60;;;;;;;17.27;100.00;99633.34;15274895;19;20015;-80
2022/10/06 13:46:01;;;;;;;2.47;0.90;;;;;;;17.39;100.00;99637.41;15288279;19;20025;-81
2022/10/06 13:51:31;;;;;;;2.13;0.70;;;;;;;17.25;99.75;99639.81;15279680;19;20506;-80
2022/10/06 13:56:57;;;;;;;2.20;0.75;;;;;;;17.28;100.00;99640.50;15285192;19;20058;-81
2022/10/06 14:02:25;;;;;;;3.53;0.60;;;;;;;17.35;100.00;99641.50;15292580;19;20039;-80
2022/10/06 14:07:53;;;;;;;2.92;0.70;;;;;;;17.28;100.00;99640.50;15289615;19;20025;-81
2022/10/06 14:13:23;;;;;;;1.83;0.70;;;;;;;17.49;100.00;99643.50;15289008;19;20010;-82
2022/10/06 14:18:55;;;;;;;2.05;0.60;;;;;;;17.54;100.00;99627.47;15285435;19;20485;-78
2022/10/06 14:24:33;;;;;;;1.95;0.80;;;;;;;17.62;100.00;99632.03;15282154;19;20019;-80
2022/10/06 14:29:58;;;;;;;2.03;0.80;;;;;;;17.77;100.00;99639.44;15281440;19;20011;-80
2022/10/06 14:35:22;;;;;;;3.30;0.70;;;;;;;18.00;100.00;99642.25;15278364;19;20109;-80
2022/10/06 14:40:49;;;;;;;3.33;0.73;;;;;;;18.15;100.00;99639.59;15280710;19;20387;-78
2022/10/06 14:46:16;;;;;;;2.17;0.60;;;;;;;18.10;100.00;99629.25;15286355;19;20015;-79
2022/10/06 14:51:43;;;;;;;2.38;0.80;;;;;;;18.20;97.35;99629.00;15280439;19;20015;-80
2022/10/06 14:57:12;;;;;;;1.73;0.70;;;;;;;18.02;100.00;99627.41;15282117;19;20018;-79
2022/10/06 15:02:37;;;;;;;2.03;0.70;;;;;;;18.01;97.41;99633.88;15282777;19;20665;-79
2022/10/06 15:08:13;;;;;;;2.08;0.68;;;;;;;18.20;97.85;99644.50;15289256;19;20010;-78
2022/10/06 15:13:40;;;;;;;3.67;0.75;;;;;;;18.27;92.27;99629.13;15288690;19;20010;-77
2022/10/06 15:19:08;;;;;;;6.32;1.00;;;;;;;18.28;100.00;99625.38;15285745;19;20018;-77
2022/10/06 15:24:33;;;;;;;4.05;0.90;;;;;;;18.29;96.25;99636.09;15280423;19;20011;-76
2022/10/06 15:30:00;;;;;;;2.25;0.60;;;;;;;18.38;98.72;99636.03;15279595;19;20013;-78
2022/10/06 15:35:25;;;;;;;2.22;0.90;;;;;;;18.20;89.76;99630.88;15279698;19;20010;-78
2022/10/06 15:40:49;;;;;;;3.38;0.90;;;;;;;18.22;100.00;99637.00;15279758;19;20475;-78
2022/10/06 15:46:17;;;;;;;3.38;0.73;;;;;;;18.18;94.10;99637.34;15285510;19;20021;-79
2022/10/06 15:51:45;;;;;;;3.17;0.73;;;;;;;17.94;100.00;99635.63;15284069;19;20825;-79
2022/10/06 15:57:12;;;;;;;2.30;0.95;;;;;;;17.72;99.19;99629.06;15286050;19;20017;-80
2022/10/06 16:02:40;;;;;;;1.30;0.70;;;;;;;17.59;100.00;99636.97;15287396;19;20357;-78
2022/10/06 16:08:06;;;;;;;2.40;0.75;;;;;;;17.48;100.00;99647.22;15285817;19;20049;-80
2022/10/06 16:13:30;;;;;;;3.28;0.80;;;;;;;17.34;100.00;99639.81;15284351;19;20021;-79
2022/10/06 16:19:00;;;;;;;2.22;0.90;;;;;;;17.02;100.00;99642.44;15287560;19;20357;-79
2022/10/06 16:24:25;;;;;;;3.00;0.80;;;;;;;16.87;100.00;99646.84;15286444;19;20498;-81
2022/10/06 16:29:50;;;;;;;2.17;0.80;;;;;;;16.61;100.00;99645.16;15287198;19;20019;-82
2022/10/06 16:35:24;;;;;;;2.08;0.70;;;;;;;16.55;100.00;99643.13;15293297;19;20513;-82
2022/10/06 16:40:55;;;;;;;2.53;0.80;;;;;;;16.35;100.00;99650.78;15284178;19;20049;-80
2022/10/06 16:46:22;;;;;;;1.98;0.90;;;;;;;16.12;100.00;99662.31;15287965;19;20014;-79
2022/10/06 16:51:50;;;;;;;2.83;0.73;;;;;;;15.89;100.00;99660.22;15292796;19;20458;-78
2022/10/06 16:57:15;;;;;;;2.75;0.80;;;;;;;15.57;100.00;99661.75;15263796;19;20365;-78
2022/10/06 17:02:40;;;;;;;4.55;1.10;;;;;;;15.11;100.00;99670.16;15282579;19;20544;-79
2022/10/06 17:08:16;;;;;;;1.73;0.73;;;;;;;14.86;100.00;99671.88;15296223;19;20445;-80
2022/10/06 17:13:46;;;;;;;2.35;1.35;;;;;;;14.64;100.00;99676.75;15339061;19;20027;-80
2022/10/06 17:19:11;;;;;;;2.70;1.00;;;;;;;14.40;100.00;99683.66;15303561;19;20022;-80
2022/10/06 17:24:38;;;;;;;2.15;0.75;;;;;;;14.10;100.00;99698.44;15285755;19;20029;-80
2022/10/06 17:30:03;;;;;;;2.92;0.95;;;;;;;13.66;100.00;99685.56;15300705;19;20015;-80
2022/10/06 17:35:29;;;;;;;3.70;0.90;;;;;;;13.55;100.00;99700.13;15299708;19;20046;-79
2022/10/06 17:40:57;;;;;;;2.63;0.80;;;;;;;13.37;100.00;99695.50;15298327;19;20083;-80
2022/10/06 17:46:38;;;;;;;2.15;0.88;;;;;;;13.23;100.00;99695.97;15345708;19;20010;-81
2022/10/06 17:52:06;;;;;;;4.97;1.13;;;;;;;13.05;100.00;99698.56;15334512;19;20014;-78
2022/10/06 17:57:33;;;;;;;2.53;1.05;;;;;;;12.85;100.00;99698.63;15304422;19;20080;-80
2022/10/06 18:02:59;;;;;;;2.17;0.80;;;;;;;12.69;100.00;99709.16;15302519;19;20090;-79
2022/10/06 18:08:24;;;;;;;3.28;1.25;;;;;;;12.37;100.00;99707.59;15291991;19;20516;-81
2022/10/06 18:13:57;;;;;;;3.13;0.95;;;;;;;12.29;100.00;99711.00;15303052;19;20010;-79
2022/10/06 18:19:25;;;;;;;4.90;1.13;;;;;;;12.15;100.00;99706.88;15302348;19;20379;-79
2022/10/06 18:24:50;;;;;;;4.80;1.40;;;;;;;12.02;100.00;99705.28;15305874;19;20774;-79
2022/10/06 18:30:19;;;;;;;3.53;1.20;;;;;;;11.85;100.00;99711.28;15297985;19;20010;-79
2022/10/06 18:35:53;;;;;;;4.95;1.10;;;;;;;11.75;100.00;99705.00;15292770;19;20342;-78
2022/10/06 18:41:35;;;;;;;3.58;1.20;;;;;;;11.61;100.00;99709.78;15285402;19;20019;-78
2022/10/06 18:52:41;;;;;;;3.58;1.20;;;;;;;11.36;100.00;99719.22;15293391;19;20019;-79
2022/10/06 18:58:06;;;;;;;7.65;1.90;;;;;;;11.25;100.00;99725.53;15285095;19;20038;-78
2022/10/06 19:03:33;;;;;;;4.63;2.17;;;;;;;11.08;100.00;99729.69;15296322;19;20007;-78
2022/10/06 19:09:03;;;;;;;6.43;2.28;;;;;;;10.93;100.00;99734.56;15288690;19;20018;-76
2022/10/06 19:14:31;;;;;;;4.55;2.20;;;;;;;10.77;100.00;99737.72;15283616;19;20010;-78
2022/10/06 19:19:58;;;;;;;8.48;2.05;;;;;;;10.67;100.00;99753.81;15280109;19;20371;-78
2022/10/06 19:25:25;;;;;;;3.95;1.52;;;;;;;10.63;100.00;99745.13;15282705;19;20018;-78
2022/10/06 19:30:58;;;;;;;6.20;1.60;;;;;;;10.58;100.00;99736.59;15280487;19;20018;-77
2022/10/06 19:36:26;;;;;;;3.88;1.27;;;;;;;10.54;100.00;99743.22;15281109;19;20038;-77
2022/10/06 19:47:29;;;;;;;3.90;1.40;;;;;;;10.45;100.00;99744.00;15275878;19;20014;-75
2022/10/06 19:52:57;;;;;;;3.35;1.15;;;;;;;10.43;100.00;99751.34;15278392;19;20011;-75
2022/10/06 19:58:21;;;;;;;2.22;1.17;;;;;;;10.40;100.00;99765.94;15281053;19;20028;-76
2022/10/06 20:03:46;;;;;;;4.53;1.23;;;;;;;10.36;100.00;99755.47;15278245;19;20006;-76
2022/10/06 20:09:13;;;;;;;4.05;1.40;;;;;;;10.31;100.00;99758.56;15283142;19;20021;-75
2022/10/06 20:14:38;;;;;;;2.65;1.38;;;;;;;10.28;100.00;99761.53;15273672;19;20015;-75
2022/10/06 20:20:03;;;;;;;5.18;1.60;;;;;;;10.27;100.00;99766.03;15279049;19;20014;-76
2022/10/06 20:25:25;;;;;;;2.95;1.38;;;;;;;10.32;100.00;99760.25;15278888;19;20038;-76
2022/10/06 20:30:52;;;;;;;2.25;1.30;;;;;;;10.34;100.00;99769.06;15273600;19;20019;-76
2022/10/06 20:36:19;;;;;;;4.55;1.52;;;;;;;10.31;100.00;99755.84;15276662;19;20019;-77
2022/10/06 20:41:47;;;;;;;2.95;1.20;;;;;;;10.21;100.00;99760.28;15281726;19;20045;-76
2022/10/06 20:47:12;;;;;;;3.72;1.40;;;;;;;9.96;100.00;99764.97;15283512;19;20031;-75
2022/10/06 20:52:37;;;;;;;2.97;1.30;;;;;;;9.76;100.00;99759.38;15345307;19;20014;-76
2022/10/06 20:58:04;;;;;;;3.95;1.40;;;;;;;9.66;100.00;99759.25;15276758;19;20021;-76
2022/10/06 21:03:29;;;;;;;3.08;1.50;;;;;;;9.53;100.00;99759.38;15281233;19;20548;-75
2022/10/06 21:08:54;;;;;;;4.63;1.70;;;;;;;9.43;100.00;99753.03;15280076;19;20083;-77
2022/10/06 21:14:22;;;;;;;5.15;1.30;;;;;;;9.34;100.00;99743.84;15269403;19;20498;-75
2022/10/06 21:19:46;;;;;;;3.08;1.60;;;;;;;9.24;100.00;99751.75;15280543;19;20042;-77
2022/10/06 21:25:11;;;;;;;4.38;1.73;;;;;;;9.14;100.00;99741.84;15279510;19;20054;-77
2022/10/06 21:30:42;;;;;;;4.15;1.50;;;;;;;9.07;100.00;99736.94;15269997;19;20015;-76
2022/10/06 21:36:08;;;;;;;;;;;;;;;9.01;100.00;99731.19;15271058;19;20018;-76
2022/10/06 21:41:36;;;;;;;2.97;1.40;;;;;;;8.93;100.00;99734.50;15272799;19;19919;-76
2022/10/06 21:47:04;;;;;;;3.85;1.40;;;;;;;8.86;100.00;99725.16;15266036;19;20366;-75
2022/10/06 21:52:28;;;;;;;3.67;1.55;;;;;;;8.77;100.00;99722.22;15274047;19;20035;-76
2022/10/06 21:57:53;;;;;;;3.83;1.60;;;;;;;8.73;100.00;99728.78;15275285;19;20358;-75
2022/10/06 22:03:20;;;;;;;6.50;1.85;;;;;;;8.68;100.00;99724.75;15279567;19;20058;-76
2022/10/06 22:08:46;;;;;;;3.63;1.65;;;;;;;8.61;100.00;99724.34;15275953;19;20031;-75
2022/10/06 22:14:15;;;;;;;4.15;1.83;;;;;;;8.52;100.00;99736.69;15288551;19;20038;-76
2022/10/06 22:19:42;;;;;;;4.85;1.60;;;;;;;8.44;100.00;99729.16;15288788;19;20018;-76
2022/10/06 22:25:06;;;;;;;4.47;1.73;;;;;;;8.39;100.00;99733.16;15281408;19;20030;-76
2022/10/06 22:30:31;;;;;;;3.80;1.80;;;;;;;8.30;100.00;99734.69;15281430;19;20011;-75
2022/10/06 22:36:05;;;;;;;4.38;1.75;;;;;;;8.21;100.00;99727.34;15284220;19;20038;-75
2022/10/06 22:41:30;;;;;;;3.72;1.70;;;;;;;8.14;100.00;99732.31;15287650;19;20043;-75
2022/10/06 22:46:54;;;;;;;3.33;1.90;;;;;;;8.08;100.00;99722.00;15284599;19;20367;-76
2022/10/06 22:52:22;;;;;;;6.97;1.88;;;;;;;8.04;100.00;99721.38;15290762;19;20010;-75
2022/10/06 22:57:46;;;;;;;3.78;1.98;;;;;;;8.01;100.00;99726.97;15310844;19;20014;-74
2022/10/06 23:03:11;;;;;;;4.57;1.70;;;;;;;7.99;100.00;99723.56;15339073;19;20025;-75
2022/10/06 23:08:38;;;;;;;4.07;1.58;;;;;;;7.98;100.00;99714.63;15289706;19;20022;-75
2022/10/06 23:14:03;;;;;;;4.63;1.90;;;;;;;7.97;100.00;99715.59;15292902;19;20010;-76
2022/10/06 23:19:27;;;;;;;3.78;1.88;;;;;;;7.94;100.00;99715.81;15287646;19;20370;-78
2022/10/06 23:24:55;;;;;;;3.33;1.80;;;;;;;7.93;100.00;99707.88;15291439;19;20017;-78
2022/10/06 23:30:20;;;;;;;4.07;2.17;;;;;;;7.87;100.00;99709.19;15285674;19;20018;-77
2022/10/06 23:35:51;;;;;;;5.13;2.10;;;;;;;7.84;100.00;99709.41;15281099;19;20815;-74
2022/10/06 23:41:19;;;;;;;3.13;1.83;;;;;;;7.78;100.00;99693.78;15278458;19;20402;-75
2022/10/06 23:46:43;;;;;;;4.03;1.80;;;;;;;7.72;100.00;99689.72;15277370;19;20025;-76
2022/10/06 23:52:08;;;;;;;4.45;1.85;;;;;;;7.68;100.00;99694.44;15284795;19;20018;-76
2022/10/06 23:57:36;;;;;;;5.03;2.20;;;;;;;7.66;100.00;99685.66;15278133;19;20014;-76
